sensor_id;sensor_type;location;lat;lon;timestamp;pressure;altitude;pressure_sealevel;temperature;humidity
50430;BME280;36359;41.556;-8.418;2023-04-02T00:06:31;101166.25;;;12.19;85.41
50430;BME280;36359;41.556;-8.418;2023-04-02T00:09:22;101158.44;;;12.45;84.94
50430;BME280;36359;41.556;-8.418;2023-04-02T00:11:50;101161.44;;;12.52;83.43
50430;BME280;36359;41.556;-8.418;2023-04-02T00:16:55;101170.59;;;12.41;80.95
50430;BME280;36359;41.556;-8.418;2023-04-02T00:19:30;101165.28;;;12.30;81.05
50430;BME280;36359;41.556;-8.418;2023-04-02T00:22:01;101166.31;;;12.38;82.08
50430;BME280;36359;41.556;-8.418;2023-04-02T00:24:27;101161.56;;;12.21;80.77
50430;BME280;36359;41.556;-8.418;2023-04-02T00:26:54;101171.16;;;12.25;78.52
50430;BME280;36359;41.556;-8.418;2023-04-02T00:29:20;101167.28;;;12.18;77.08
50430;BME280;36359;41.556;-8.418;2023-04-02T00:31:51;101165.09;;;12.12;78.03
50430;BME280;36359;41.556;-8.418;2023-04-02T00:34:30;101166.63;;;11.95;77.77
50430;BME280;36359;41.556;-8.418;2023-04-02T00:36:56;101165.69;;;11.85;77.78
50430;BME280;36359;41.556;-8.418;2023-04-02T00:39:24;101167.38;;;12.07;79.49
50430;BME280;36359;41.556;-8.418;2023-04-02T00:41:57;101161.38;;;12.13;79.08
50430;BME280;36359;41.556;-8.418;2023-04-02T00:44:35;101168.97;;;12.19;76.76
50430;BME280;36359;41.556;-8.418;2023-04-02T00:47:19;101175.44;;;12.18;77.21
50430;BME280;36359;41.556;-8.418;2023-04-02T00:49:48;101161.78;;;11.98;78.07
50430;BME280;36359;41.556;-8.418;2023-04-02T00:52:20;101169.06;;;11.98;78.21
50430;BME280;36359;41.556;-8.418;2023-04-02T00:54:51;101163.09;;;12.14;83.48
50430;BME280;36359;41.556;-8.418;2023-04-02T00:57:20;101159.28;;;12.36;82.81
50430;BME280;36359;41.556;-8.418;2023-04-02T01:02:37;101165.00;;;11.82;77.41
50430;BME280;36359;41.556;-8.418;2023-04-02T01:13:35;101161.13;;;11.85;78.84
50430;BME280;36359;41.556;-8.418;2023-04-02T01:18:50;101157.81;;;11.81;82.80
50430;BME280;36359;41.556;-8.418;2023-04-02T01:24:02;101167.16;;;11.58;73.74
50430;BME280;36359;41.556;-8.418;2023-04-02T01:26:44;101166.97;;;11.80;76.82
50430;BME280;36359;41.556;-8.418;2023-04-02T01:31:40;101168.09;;;11.68;76.60
50430;BME280;36359;41.556;-8.418;2023-04-02T01:34:10;101165.59;;;11.86;81.64
50430;BME280;36359;41.556;-8.418;2023-04-02T01:39:27;101161.38;;;12.13;78.00
50430;BME280;36359;41.556;-8.418;2023-04-02T01:42:17;101156.50;;;11.76;71.88
50430;BME280;36359;41.556;-8.418;2023-04-02T01:44:58;101163.41;;;11.49;73.44
50430;BME280;36359;41.556;-8.418;2023-04-02T01:47:25;101153.50;;;11.39;75.83
50430;BME280;36359;41.556;-8.418;2023-04-02T01:49:58;101158.03;;;11.38;75.94
50430;BME280;36359;41.556;-8.418;2023-04-02T01:52:38;101151.78;;;11.17;75.17
50430;BME280;36359;41.556;-8.418;2023-04-02T01:55:07;101159.19;;;10.73;75.97
50430;BME280;36359;41.556;-8.418;2023-04-02T01:57:33;101157.44;;;11.04;76.96
50430;BME280;36359;41.556;-8.418;2023-04-02T02:00:01;101158.81;;;10.98;76.18
50430;BME280;36359;41.556;-8.418;2023-04-02T02:02:39;101159.88;;;11.07;77.15
50430;BME280;36359;41.556;-8.418;2023-04-02T02:05:12;101155.41;;;11.06;78.28
50430;BME280;36359;41.556;-8.418;2023-04-02T02:07:39;101163.72;;;11.04;78.36
50430;BME280;36359;41.556;-8.418;2023-04-02T02:10:13;101166.28;;;11.06;79.70
50430;BME280;36359;41.556;-8.418;2023-04-02T02:12:42;101162.88;;;11.04;80.29
50430;BME280;36359;41.556;-8.418;2023-04-02T02:15:16;101157.41;;;11.25;80.75
50430;BME280;36359;41.556;-8.418;2023-04-02T02:17:43;101162.38;;;11.20;79.43
50430;BME280;36359;41.556;-8.418;2023-04-02T02:20:10;101166.22;;;11.17;80.02
50430;BME280;36359;41.556;-8.418;2023-04-02T02:22:38;101164.28;;;11.29;81.50
50430;BME280;36359;41.556;-8.418;2023-04-02T02:25:14;101164.03;;;11.63;83.25
50430;BME280;36359;41.556;-8.418;2023-04-02T02:27:54;101166.19;;;11.38;78.93
50430;BME280;36359;41.556;-8.418;2023-04-02T02:30:31;101158.16;;;11.27;78.22
50430;BME280;36359;41.556;-8.418;2023-04-02T02:33:04;101144.09;;;11.22;84.89
50430;BME280;36359;41.556;-8.418;2023-04-02T02:46:26;101149.09;;;11.47;80.13
50430;BME280;36359;41.556;-8.418;2023-04-02T02:48:55;101141.31;;;11.33;74.01
50430;BME280;36359;41.556;-8.418;2023-04-02T02:51:28;101144.91;;;11.12;74.67
50430;BME280;36359;41.556;-8.418;2023-04-02T02:54:00;101141.41;;;10.80;74.07
50430;BME280;36359;41.556;-8.418;2023-04-02T02:56:30;101145.75;;;10.71;71.97
50430;BME280;36359;41.556;-8.418;2023-04-02T02:58:59;101140.25;;;10.61;74.07
50430;BME280;36359;41.556;-8.418;2023-04-02T03:01:31;101135.81;;;10.60;74.26
50430;BME280;36359;41.556;-8.418;2023-04-02T03:04:02;101136.19;;;10.56;72.90
50430;BME280;36359;41.556;-8.418;2023-04-02T03:06:29;101135.44;;;11.07;82.43
50430;BME280;36359;41.556;-8.418;2023-04-02T03:09:16;101132.06;;;10.94;70.95
50430;BME280;36359;41.556;-8.418;2023-04-02T03:12:17;101135.81;;;10.81;73.24
50430;BME280;36359;41.556;-8.418;2023-04-02T03:15:04;101128.53;;;11.03;77.44
50430;BME280;36359;41.556;-8.418;2023-04-02T03:22:55;101129.19;;;11.16;71.44
50430;BME280;36359;41.556;-8.418;2023-04-02T03:25:32;101127.28;;;11.07;74.46
50430;BME280;36359;41.556;-8.418;2023-04-02T03:28:05;101129.81;;;10.99;69.25
50430;BME280;36359;41.556;-8.418;2023-04-02T03:30:37;101122.00;;;10.84;71.13
50430;BME280;36359;41.556;-8.418;2023-04-02T03:33:16;101124.06;;;10.92;73.66
50430;BME280;36359;41.556;-8.418;2023-04-02T03:36:02;101116.97;;;10.80;70.52
50430;BME280;36359;41.556;-8.418;2023-04-02T03:38:49;101116.44;;;10.86;70.72
50430;BME280;36359;41.556;-8.418;2023-04-02T03:44:15;101109.75;;;10.69;71.07
50430;BME280;36359;41.556;-8.418;2023-04-02T03:46:48;101110.06;;;10.76;70.14
50430;BME280;36359;41.556;-8.418;2023-04-02T03:51:59;101106.03;;;10.70;72.19
50430;BME280;36359;41.556;-8.418;2023-04-02T03:54:27;101096.94;;;10.39;71.58
50430;BME280;36359;41.556;-8.418;2023-04-02T03:56:53;101100.44;;;10.30;71.81
50430;BME280;36359;41.556;-8.418;2023-04-02T03:59:47;101094.13;;;10.29;71.59
50430;BME280;36359;41.556;-8.418;2023-04-02T04:04:47;101089.59;;;10.18;75.09
50430;BME280;36359;41.556;-8.418;2023-04-02T04:07:27;101091.63;;;9.94;71.42
50430;BME280;36359;41.556;-8.418;2023-04-02T04:09:54;101084.63;;;9.91;72.08
50430;BME280;36359;41.556;-8.418;2023-04-02T04:14:59;101099.72;;;10.05;75.95
50430;BME280;36359;41.556;-8.418;2023-04-02T04:20:57;101107.69;;;10.29;75.55
50430;BME280;36359;41.556;-8.418;2023-04-02T04:23:34;101108.84;;;10.27;69.82
50430;BME280;36359;41.556;-8.418;2023-04-02T04:29:08;101107.38;;;10.43;71.86
50430;BME280;36359;41.556;-8.418;2023-04-02T04:31:48;101112.22;;;10.40;71.34
50430;BME280;36359;41.556;-8.418;2023-04-02T04:34:22;101114.84;;;10.30;70.50
50430;BME280;36359;41.556;-8.418;2023-04-02T04:36:55;101107.00;;;10.48;72.32
50430;BME280;36359;41.556;-8.418;2023-04-02T04:42:39;101112.94;;;9.98;71.53
50430;BME280;36359;41.556;-8.418;2023-04-02T04:47:43;101114.19;;;10.38;70.65
50430;BME280;36359;41.556;-8.418;2023-04-02T04:50:24;101114.25;;;10.27;68.43
50430;BME280;36359;41.556;-8.418;2023-04-02T04:52:53;101119.09;;;10.44;72.50
50430;BME280;36359;41.556;-8.418;2023-04-02T04:55:28;101123.66;;;10.43;70.48
50430;BME280;36359;41.556;-8.418;2023-04-02T04:58:03;101120.03;;;10.33;67.73
50430;BME280;36359;41.556;-8.418;2023-04-02T05:03:25;101114.09;;;10.60;71.81
50430;BME280;36359;41.556;-8.418;2023-04-02T05:06:04;101115.66;;;10.74;67.76
50430;BME280;36359;41.556;-8.418;2023-04-02T05:08:35;101114.94;;;10.40;67.37
50430;BME280;36359;41.556;-8.418;2023-04-02T05:11:39;101119.97;;;9.90;67.62
50430;BME280;36359;41.556;-8.418;2023-04-02T05:14:17;101117.69;;;9.74;75.87
50430;BME280;36359;41.556;-8.418;2023-04-02T05:16:50;101119.63;;;9.94;72.43
50430;BME280;36359;41.556;-8.418;2023-04-02T05:19:28;101116.31;;;10.34;75.71
50430;BME280;36359;41.556;-8.418;2023-04-02T05:32:47;101121.09;;;9.87;79.40
50430;BME280;36359;41.556;-8.418;2023-04-02T05:35:19;101128.13;;;9.78;70.62
50430;BME280;36359;41.556;-8.418;2023-04-02T05:37:48;101128.63;;;9.61;69.59
50430;BME280;36359;41.556;-8.418;2023-04-02T05:40:22;101139.59;;;9.48;69.93
50430;BME280;36359;41.556;-8.418;2023-04-02T05:42:51;101141.22;;;9.62;71.94
50430;BME280;36359;41.556;-8.418;2023-04-02T05:47:56;101137.75;;;9.60;74.02
50430;BME280;36359;41.556;-8.418;2023-04-02T05:50:40;101145.88;;;9.38;71.70
50430;BME280;36359;41.556;-8.418;2023-04-02T05:53:23;101151.78;;;9.31;71.44
50430;BME280;36359;41.556;-8.418;2023-04-02T06:01:19;101167.78;;;9.23;72.27
50430;BME280;36359;41.556;-8.418;2023-04-02T06:06:45;101166.44;;;9.40;75.03
50430;BME280;36359;41.556;-8.418;2023-04-02T06:09:27;101165.69;;;9.38;74.31
50430;BME280;36359;41.556;-8.418;2023-04-02T06:12:23;101174.72;;;9.39;72.52
50430;BME280;36359;41.556;-8.418;2023-04-02T06:14:47;101174.31;;;9.21;71.47
50430;BME280;36359;41.556;-8.418;2023-04-02T06:17:15;101179.97;;;9.18;70.77
50430;BME280;36359;41.556;-8.418;2023-04-02T06:19:42;101175.56;;;9.39;74.37
50430;BME280;36359;41.556;-8.418;2023-04-02T06:25:23;101184.25;;;9.20;70.74
50430;BME280;36359;41.556;-8.418;2023-04-02T06:27:53;101192.63;;;9.17;74.06
50430;BME280;36359;41.556;-8.418;2023-04-02T06:30:28;101194.69;;;9.02;72.53
50430;BME280;36359;41.556;-8.418;2023-04-02T06:32:56;101178.94;;;9.07;73.69
50430;BME280;36359;41.556;-8.418;2023-04-02T06:35:24;101182.69;;;9.29;72.65
50430;BME280;36359;41.556;-8.418;2023-04-02T06:38:01;101171.59;;;9.21;68.50
50430;BME280;36359;41.556;-8.418;2023-04-02T06:43:44;101199.78;;;9.18;68.29
50430;BME280;36359;41.556;-8.418;2023-04-02T06:46:27;101208.69;;;8.96;67.69
50430;BME280;36359;41.556;-8.418;2023-04-02T06:52:09;101195.16;;;9.65;69.95
50430;BME280;36359;41.556;-8.418;2023-04-02T06:54:39;101203.16;;;10.12;75.96
50430;BME280;36359;41.556;-8.418;2023-04-02T06:57:08;101199.59;;;10.00;68.67
50430;BME280;36359;41.556;-8.418;2023-04-02T06:59:41;101199.31;;;9.47;66.78
50430;BME280;36359;41.556;-8.418;2023-04-02T07:04:46;101190.09;;;9.72;68.69
50430;BME280;36359;41.556;-8.418;2023-04-02T07:07:14;101197.13;;;9.74;69.58
50430;BME280;36359;41.556;-8.418;2023-04-02T07:09:42;101196.59;;;9.47;65.03
50430;BME280;36359;41.556;-8.418;2023-04-02T07:12:13;101196.63;;;9.69;68.62
50430;BME280;36359;41.556;-8.418;2023-04-02T07:14:40;101199.59;;;10.00;69.53
50430;BME280;36359;41.556;-8.418;2023-04-02T07:17:14;101192.41;;;10.21;71.97
50430;BME280;36359;41.556;-8.418;2023-04-02T07:19:42;101189.03;;;10.40;71.35
50430;BME280;36359;41.556;-8.418;2023-04-02T07:22:10;101194.38;;;9.97;65.00
50430;BME280;36359;41.556;-8.418;2023-04-02T07:24:47;101194.78;;;9.81;63.12
50430;BME280;36359;41.556;-8.418;2023-04-02T07:27:14;101203.75;;;10.15;65.91
50430;BME280;36359;41.556;-8.418;2023-04-02T07:29:39;101209.03;;;10.17;65.54
50430;BME280;36359;41.556;-8.418;2023-04-02T07:32:11;101212.09;;;10.35;69.25
50430;BME280;36359;41.556;-8.418;2023-04-02T07:34:38;101205.72;;;10.13;63.72
50430;BME280;36359;41.556;-8.418;2023-04-02T07:37:05;101203.00;;;10.02;68.50
50430;BME280;36359;41.556;-8.418;2023-04-02T07:39:31;101205.47;;;10.16;67.45
50430;BME280;36359;41.556;-8.418;2023-04-02T07:42:00;101208.94;;;10.07;63.99
50430;BME280;36359;41.556;-8.418;2023-04-02T07:44:27;101210.66;;;9.97;64.29
50430;BME280;36359;41.556;-8.418;2023-04-02T07:46:53;101212.63;;;10.29;68.50
50430;BME280;36359;41.556;-8.418;2023-04-02T07:49:19;101221.75;;;10.39;66.52
50430;BME280;36359;41.556;-8.418;2023-04-02T07:51:45;101211.63;;;10.18;65.92
50430;BME280;36359;41.556;-8.418;2023-04-02T07:54:11;101218.31;;;10.03;65.85
50430;BME280;36359;41.556;-8.418;2023-04-02T07:56:37;101227.56;;;10.12;64.40
50430;BME280;36359;41.556;-8.418;2023-04-02T07:59:03;101233.03;;;10.55;73.12
50430;BME280;36359;41.556;-8.418;2023-04-02T08:01:29;101231.84;;;10.37;65.60
50430;BME280;36359;41.556;-8.418;2023-04-02T08:04:00;101229.34;;;10.56;64.46
50430;BME280;36359;41.556;-8.418;2023-04-02T08:06:26;101234.28;;;10.51;62.36
50430;BME280;36359;41.556;-8.418;2023-04-02T08:08:52;101241.84;;;10.80;63.30
50430;BME280;36359;41.556;-8.418;2023-04-02T08:11:18;101225.81;;;10.77;70.07
50430;BME280;36359;41.556;-8.418;2023-04-02T08:13:44;101228.47;;;10.88;65.37
50430;BME280;36359;41.556;-8.418;2023-04-02T08:16:10;101235.06;;;11.06;63.33
50430;BME280;36359;41.556;-8.418;2023-04-02T08:18:36;101234.06;;;11.07;61.52
50430;BME280;36359;41.556;-8.418;2023-04-02T08:21:05;101236.25;;;11.34;65.60
50430;BME280;36359;41.556;-8.418;2023-04-02T08:23:32;101232.25;;;11.18;59.30
50430;BME280;36359;41.556;-8.418;2023-04-02T08:25:57;101232.53;;;11.14;61.07
50430;BME280;36359;41.556;-8.418;2023-04-02T08:28:23;101234.50;;;11.24;60.11
50430;BME280;36359;41.556;-8.418;2023-04-02T08:30:49;101241.78;;;11.44;65.33
50430;BME280;36359;41.556;-8.418;2023-04-02T08:33:16;101233.41;;;11.57;61.40
50430;BME280;36359;41.556;-8.418;2023-04-02T08:35:44;101229.91;;;11.45;58.66
50430;BME280;36359;41.556;-8.418;2023-04-02T08:38:13;101231.00;;;11.64;61.71
50430;BME280;36359;41.556;-8.418;2023-04-02T08:40:41;101230.59;;;11.68;59.35
50430;BME280;36359;41.556;-8.418;2023-04-02T08:48:33;101235.06;;;11.79;57.83
50430;BME280;36359;41.556;-8.418;2023-04-02T08:51:02;101241.47;;;11.89;62.15
50430;BME280;36359;41.556;-8.418;2023-04-02T08:53:36;101243.00;;;12.13;58.73
50430;BME280;36359;41.556;-8.418;2023-04-02T08:56:19;101246.22;;;12.37;61.98
50430;BME280;36359;41.556;-8.418;2023-04-02T08:59:03;101252.09;;;12.33;56.70
50430;BME280;36359;41.556;-8.418;2023-04-02T09:01:44;101244.44;;;12.17;56.57
50430;BME280;36359;41.556;-8.418;2023-04-02T09:04:14;101246.22;;;11.76;55.35
50430;BME280;36359;41.556;-8.418;2023-04-02T09:06:41;101245.22;;;11.98;55.25
50430;BME280;36359;41.556;-8.418;2023-04-02T09:09:13;101248.28;;;12.14;55.52
50430;BME280;36359;41.556;-8.418;2023-04-02T09:11:48;101249.38;;;12.42;62.40
50430;BME280;36359;41.556;-8.418;2023-04-02T09:14:42;101249.97;;;12.56;59.77
50430;BME280;36359;41.556;-8.418;2023-04-02T09:17:20;101260.63;;;12.78;54.91
50430;BME280;36359;41.556;-8.418;2023-04-02T09:19:53;101260.63;;;12.68;52.56
50430;BME280;36359;41.556;-8.418;2023-04-02T09:22:23;101272.41;;;12.98;59.13
50430;BME280;36359;41.556;-8.418;2023-04-02T09:24:57;101272.25;;;13.19;54.46
50430;BME280;36359;41.556;-8.418;2023-04-02T09:27:26;101271.84;;;12.94;52.01
50430;BME280;36359;41.556;-8.418;2023-04-02T09:29:56;101273.41;;;13.07;51.10
50430;BME280;36359;41.556;-8.418;2023-04-02T09:32:39;101270.41;;;13.29;56.28
50430;BME280;36359;41.556;-8.418;2023-04-02T09:35:16;101268.94;;;13.64;55.78
50430;BME280;36359;41.556;-8.418;2023-04-02T09:37:43;101269.22;;;13.61;54.15
50430;BME280;36359;41.556;-8.418;2023-04-02T09:42:46;101271.63;;;13.83;52.16
50430;BME280;36359;41.556;-8.418;2023-04-02T09:45:19;101270.06;;;13.71;49.97
50430;BME280;36359;41.556;-8.418;2023-04-02T09:47:46;101276.66;;;13.78;54.68
50430;BME280;36359;41.556;-8.418;2023-04-02T09:50:33;101278.34;;;13.79;52.44
50430;BME280;36359;41.556;-8.418;2023-04-02T09:53:23;101284.28;;;13.75;52.95
50430;BME280;36359;41.556;-8.418;2023-04-02T09:56:09;101278.13;;;13.63;52.97
50430;BME280;36359;41.556;-8.418;2023-04-02T09:58:36;101276.47;;;13.90;54.51
50430;BME280;36359;41.556;-8.418;2023-04-02T10:01:02;101278.72;;;14.04;51.86
50430;BME280;36359;41.556;-8.418;2023-04-02T10:03:30;101275.81;;;14.15;59.66
50430;BME280;36359;41.556;-8.418;2023-04-02T10:06:12;101271.69;;;14.39;55.42
50430;BME280;36359;41.556;-8.418;2023-04-02T10:08:43;101278.84;;;14.40;49.35
50430;BME280;36359;41.556;-8.418;2023-04-02T10:11:16;101277.53;;;14.44;50.03
50430;BME280;36359;41.556;-8.418;2023-04-02T10:13:51;101275.91;;;14.23;49.63
50430;BME280;36359;41.556;-8.418;2023-04-02T10:16:37;101271.22;;;14.43;53.83
50430;BME280;36359;41.556;-8.418;2023-04-02T10:19:31;101269.91;;;14.75;54.42
50430;BME280;36359;41.556;-8.418;2023-04-02T10:22:02;101280.44;;;14.88;50.68
50430;BME280;36359;41.556;-8.418;2023-04-02T10:24:29;101274.31;;;15.04;48.68
50430;BME280;36359;41.556;-8.418;2023-04-02T10:35:18;101269.22;;;15.53;60.15
50430;BME280;36359;41.556;-8.418;2023-04-02T10:41:30;101273.78;;;15.88;48.35
50430;BME280;36359;41.556;-8.418;2023-04-02T10:46:22;101263.38;;;15.65;49.49
50430;BME280;36359;41.556;-8.418;2023-04-02T10:56:53;101241.84;;;16.31;53.60
50430;BME280;36359;41.556;-8.418;2023-04-02T10:59:25;101243.22;;;16.35;52.64
50430;BME280;36359;41.556;-8.418;2023-04-02T11:01:54;101248.66;;;16.19;52.09
50430;BME280;36359;41.556;-8.418;2023-04-02T11:04:42;101245.31;;;16.41;49.06
50430;BME280;36359;41.556;-8.418;2023-04-02T11:07:18;101255.34;;;16.24;47.17
50430;BME280;36359;41.556;-8.418;2023-04-02T11:09:48;101245.28;;;16.33;55.62
50430;BME280;36359;41.556;-8.418;2023-04-02T11:12:26;101242.09;;;16.54;51.63
50430;BME280;36359;41.556;-8.418;2023-04-02T11:14:55;101243.66;;;16.65;47.45
50430;BME280;36359;41.556;-8.418;2023-04-02T11:17:22;101237.28;;;16.48;45.66
50430;BME280;36359;41.556;-8.418;2023-04-02T11:19:48;101240.63;;;16.76;46.29
50430;BME280;36359;41.556;-8.418;2023-04-02T11:22:24;101242.03;;;16.88;45.86
50430;BME280;36359;41.556;-8.418;2023-04-02T11:24:51;101234.78;;;16.71;43.59
50430;BME280;36359;41.556;-8.418;2023-04-02T11:27:19;101222.81;;;16.72;52.51
50430;BME280;36359;41.556;-8.418;2023-04-02T11:32:44;101226.56;;;16.71;44.32
50430;BME280;36359;41.556;-8.418;2023-04-02T11:40:56;101222.81;;;16.72;43.78
50430;BME280;36359;41.556;-8.418;2023-04-02T11:46:04;101218.56;;;16.77;45.84
50430;BME280;36359;41.556;-8.418;2023-04-02T11:48:32;101209.66;;;17.08;50.02
50430;BME280;36359;41.556;-8.418;2023-04-02T11:53:50;101206.09;;;17.24;44.76
50430;BME280;36359;41.556;-8.418;2023-04-02T11:59:12;101190.63;;;17.31;44.99
50430;BME280;36359;41.556;-8.418;2023-04-02T12:02:09;101184.09;;;17.48;44.50
50430;BME280;36359;41.556;-8.418;2023-04-02T12:07:46;101169.97;;;17.84;48.90
50430;BME280;36359;41.556;-8.418;2023-04-02T12:10:27;101164.81;;;17.89;40.01
50430;BME280;36359;41.556;-8.418;2023-04-02T12:13:02;101161.41;;;17.79;37.43
50430;BME280;36359;41.556;-8.418;2023-04-02T12:20:37;101149.75;;;17.85;35.67
50430;BME280;36359;41.556;-8.418;2023-04-02T12:23:03;101150.72;;;17.92;33.83
50430;BME280;36359;41.556;-8.418;2023-04-02T12:25:34;101145.09;;;17.86;27.07
50430;BME280;36359;41.556;-8.418;2023-04-02T12:28:17;101146.44;;;17.90;27.65
50430;BME280;36359;41.556;-8.418;2023-04-02T12:30:46;101133.06;;;17.87;33.32
50430;BME280;36359;41.556;-8.418;2023-04-02T12:35:46;101134.94;;;18.26;31.97
50430;BME280;36359;41.556;-8.418;2023-04-02T12:38:27;101134.81;;;18.19;33.20
50430;BME280;36359;41.556;-8.418;2023-04-02T12:41:01;101133.34;;;18.31;30.71
50430;BME280;36359;41.556;-8.418;2023-04-02T12:43:36;101143.97;;;18.34;35.76
50430;BME280;36359;41.556;-8.418;2023-04-02T12:46:05;101126.06;;;18.70;37.49
50430;BME280;36359;41.556;-8.418;2023-04-02T12:48:33;101122.59;;;18.76;33.29
50430;BME280;36359;41.556;-8.418;2023-04-02T12:51:00;101120.44;;;18.63;34.01
50430;BME280;36359;41.556;-8.418;2023-04-02T12:55:55;101124.59;;;18.59;32.77
50430;BME280;36359;41.556;-8.418;2023-04-02T12:58:29;101123.81;;;18.73;34.13
50430;BME280;36359;41.556;-8.418;2023-04-02T13:01:15;101126.19;;;18.53;30.51
50430;BME280;36359;41.556;-8.418;2023-04-02T13:03:57;101112.13;;;18.71;31.94
50430;BME280;36359;41.556;-8.418;2023-04-02T13:06:23;101123.25;;;18.55;29.59
50430;BME280;36359;41.556;-8.418;2023-04-02T13:08:51;101122.38;;;18.86;30.05
50430;BME280;36359;41.556;-8.418;2023-04-02T13:11:17;101115.66;;;19.03;29.76
50430;BME280;36359;41.556;-8.418;2023-04-02T13:13:44;101113.94;;;19.02;31.08
50430;BME280;36359;41.556;-8.418;2023-04-02T13:18:41;101115.50;;;19.19;30.63
50430;BME280;36359;41.556;-8.418;2023-04-02T13:23:39;101103.16;;;19.68;31.07
50430;BME280;36359;41.556;-8.418;2023-04-02T13:26:24;101100.06;;;19.63;29.91
50430;BME280;36359;41.556;-8.418;2023-04-02T13:31:31;101077.38;;;19.46;27.87
50430;BME280;36359;41.556;-8.418;2023-04-02T13:33:57;101077.69;;;19.36;27.67
50430;BME280;36359;41.556;-8.418;2023-04-02T13:36:23;101078.22;;;19.46;27.77
50430;BME280;36359;41.556;-8.418;2023-04-02T13:38:50;101074.34;;;19.41;29.46
50430;BME280;36359;41.556;-8.418;2023-04-02T13:41:24;101071.22;;;19.88;30.40
50430;BME280;36359;41.556;-8.418;2023-04-02T13:43:52;101073.41;;;19.78;28.93
50430;BME280;36359;41.556;-8.418;2023-04-02T13:46:29;101061.91;;;19.60;28.12
50430;BME280;36359;41.556;-8.418;2023-04-02T13:48:57;101061.84;;;19.68;29.35
50430;BME280;36359;41.556;-8.418;2023-04-02T13:51:35;101059.59;;;19.93;31.00
50430;BME280;36359;41.556;-8.418;2023-04-02T13:54:01;101060.41;;;20.08;29.12
50430;BME280;36359;41.556;-8.418;2023-04-02T13:56:28;101051.97;;;20.10;29.23
50430;BME280;36359;41.556;-8.418;2023-04-02T13:58:54;101053.22;;;20.07;27.58
50430;BME280;36359;41.556;-8.418;2023-04-02T14:01:21;101032.34;;;20.19;28.99
50430;BME280;36359;41.556;-8.418;2023-04-02T14:03:49;101032.50;;;20.33;26.94
50430;BME280;36359;41.556;-8.418;2023-04-02T14:15:14;101024.56;;;20.45;28.01
50430;BME280;36359;41.556;-8.418;2023-04-02T14:18:36;101019.25;;;20.22;28.85
50430;BME280;36359;41.556;-8.418;2023-04-02T14:21:06;101021.16;;;19.85;27.14
50430;BME280;36359;41.556;-8.418;2023-04-02T14:23:57;101013.13;;;19.83;27.43
50430;BME280;36359;41.556;-8.418;2023-04-02T14:37:58;100993.44;;;20.51;26.22
50430;BME280;36359;41.556;-8.418;2023-04-02T14:40:51;101000.00;;;20.50;27.93
50430;BME280;36359;41.556;-8.418;2023-04-02T14:46:03;100974.09;;;20.66;27.92
50430;BME280;36359;41.556;-8.418;2023-04-02T14:51:34;100972.41;;;20.00;27.09
50430;BME280;36359;41.556;-8.418;2023-04-02T14:56:54;100974.88;;;20.38;29.48
50430;BME280;36359;41.556;-8.418;2023-04-02T15:02:23;100957.03;;;20.34;30.77
50430;BME280;36359;41.556;-8.418;2023-04-02T15:04:58;100950.06;;;20.38;32.61
50430;BME280;36359;41.556;-8.418;2023-04-02T15:07:32;100956.25;;;20.40;31.34
50430;BME280;36359;41.556;-8.418;2023-04-02T15:10:16;100960.84;;;20.11;30.80
50430;BME280;36359;41.556;-8.418;2023-04-02T15:12:46;100954.50;;;20.11;29.75
50430;BME280;36359;41.556;-8.418;2023-04-02T15:15:35;100962.69;;;20.26;30.65
50430;BME280;36359;41.556;-8.418;2023-04-02T15:18:05;100944.31;;;20.33;31.83
50430;BME280;36359;41.556;-8.418;2023-04-02T15:21:06;100947.16;;;20.46;30.88
50430;BME280;36359;41.556;-8.418;2023-04-02T15:26:28;100949.16;;;20.31;31.26
50430;BME280;36359;41.556;-8.418;2023-04-02T15:31:33;100936.31;;;20.16;32.26
50430;BME280;36359;41.556;-8.418;2023-04-02T15:37:19;100933.53;;;20.38;31.42
50430;BME280;36359;41.556;-8.418;2023-04-02T15:39:59;100931.19;;;20.35;31.33
50430;BME280;36359;41.556;-8.418;2023-04-02T15:42:33;100934.81;;;20.35;37.62
50430;BME280;36359;41.556;-8.418;2023-04-02T15:47:56;100929.13;;;20.15;41.37
50430;BME280;36359;41.556;-8.418;2023-04-02T15:50:50;100923.47;;;20.02;42.50
50430;BME280;36359;41.556;-8.418;2023-04-02T16:12:47;100919.03;;;19.80;45.70
50430;BME280;36359;41.556;-8.418;2023-04-02T16:15:21;100917.44;;;19.70;45.30
50430;BME280;36359;41.556;-8.418;2023-04-02T16:17:53;100912.03;;;19.62;45.59
50430;BME280;36359;41.556;-8.418;2023-04-02T16:20:33;100915.38;;;19.58;43.48
50430;BME280;36359;41.556;-8.418;2023-04-02T16:23:13;100910.31;;;19.61;42.94
50430;BME280;36359;41.556;-8.418;2023-04-02T16:28:48;100909.38;;;19.69;41.03
50430;BME280;36359;41.556;-8.418;2023-04-02T16:31:27;100913.22;;;19.53;41.25
50430;BME280;36359;41.556;-8.418;2023-04-02T16:34:17;100894.69;;;19.47;42.73
50430;BME280;36359;41.556;-8.418;2023-04-02T16:36:54;100896.22;;;19.49;40.89
50430;BME280;36359;41.556;-8.418;2023-04-02T16:40:00;100894.69;;;19.47;41.67
50430;BME280;36359;41.556;-8.418;2023-04-02T16:53:29;100883.91;;;19.45;42.40
50430;BME280;36359;41.556;-8.418;2023-04-02T16:56:28;100873.47;;;19.41;42.40
50430;BME280;36359;41.556;-8.418;2023-04-02T17:04:55;100876.41;;;19.18;44.78
50430;BME280;36359;41.556;-8.418;2023-04-02T17:07:43;100877.09;;;19.26;43.16
50430;BME280;36359;41.556;-8.418;2023-04-02T17:10:23;100877.31;;;19.25;43.09
50430;BME280;36359;41.556;-8.418;2023-04-02T17:15:27;100864.81;;;19.08;44.60
50430;BME280;36359;41.556;-8.418;2023-04-02T17:17:56;100866.63;;;19.15;44.36
50430;BME280;36359;41.556;-8.418;2023-04-02T17:20:24;100868.22;;;19.24;44.23
50430;BME280;36359;41.556;-8.418;2023-04-02T17:22:51;100866.13;;;19.12;44.62
50430;BME280;36359;41.556;-8.418;2023-04-02T17:25:22;100871.56;;;19.05;45.46
50430;BME280;36359;41.556;-8.418;2023-04-02T17:27:52;100867.78;;;19.06;45.01
50430;BME280;36359;41.556;-8.418;2023-04-02T17:32:54;100870.44;;;18.84;46.03